Time;durP1;ratioP1;P1;durP2;ratioP2;P2;SDS_P1;SDS_P2;PMS_P1;PMS_P2;Temp;Humidity;BMP_temperature;BMP_pressure;BME280_temperature;BME280_humidity;BME280_pressure;Samples;Min_cycle;Max_cycle;Signal;HPM_P1;HPM_P2
2021/10/31 00:00:57;;;;;;;14.02;8.43;;;12.90;99.90;;;;;;5009900;28;20026;-70
2021/10/31 00:03:25;;;;;;;11.63;8.15;;;12.90;99.90;;;;;;5010013;28;20030;-70
2021/10/31 00:05:51;;;;;;;14.30;8.50;;;12.90;99.90;;;;;;5008454;28;20042;-70
2021/10/31 00:08:17;;;;;;;12.50;8.48;;;12.90;99.90;;;;;;5009585;28;20388;-70
2021/10/31 00:10:42;;;;;;;14.98;8.27;;;12.90;99.90;;;;;;5007985;28;20420;-70
2021/10/31 00:13:10;;;;;;;12.23;7.95;;;12.90;99.90;;;;;;5010319;28;20484;-71
2021/10/31 00:15:36;;;;;;;10.85;7.68;;;12.90;99.90;;;;;;5008656;28;20546;-70
2021/10/31 00:18:01;;;;;;;12.20;8.05;;;12.90;99.90;;;;;;5008274;28;20029;-71
2021/10/31 00:20:28;;;;;;;14.93;8.90;;;12.90;99.90;;;;;;5008288;28;20084;-71
2021/10/31 00:22:53;;;;;;;15.70;7.45;;;12.90;99.90;;;;;;5010282;28;20030;-70
2021/10/31 00:25:19;;;;;;;16.13;8.98;;;12.90;99.90;;;;;;5010251;28;20033;-70
2021/10/31 00:27:45;;;;;;;11.40;8.38;;;12.90;99.90;;;;;;5008478;28;20057;-70
2021/10/31 00:30:11;;;;;;;13.63;8.95;;;12.90;99.90;;;;;;5009262;28;20033;-70
2021/10/31 00:32:37;;;;;;;14.25;9.70;;;12.90;99.90;;;;;;5007865;28;20088;-70
2021/10/31 00:35:04;;;;;;;14.32;9.27;;;12.90;99.90;;;;;;5008532;28;20034;-70
2021/10/31 00:37:30;;;;;;;14.07;9.00;;;12.90;99.90;;;;;;5009503;28;20054;-70
2021/10/31 00:39:55;;;;;;;15.45;8.98;;;12.80;99.90;;;;;;5009952;28;20058;-70
2021/10/31 00:42:21;;;;;;;12.70;8.40;;;12.90;99.90;;;;;;5008337;28;20033;-70
2021/10/31 00:44:47;;;;;;;14.70;9.18;;;12.90;99.90;;;;;;5009051;28;20045;-70
2021/10/31 00:47:13;;;;;;;13.57;9.18;;;12.90;99.90;;;;;;5009239;28;20034;-70
2021/10/31 00:49:39;;;;;;;13.48;8.90;;;12.90;99.90;;;;;;5008718;28;20137;-70
2021/10/31 00:52:06;;;;;;;14.45;8.88;;;12.90;99.90;;;;;;5008183;28;20070;-70
2021/10/31 00:54:33;;;;;;;14.15;9.10;;;12.90;99.90;;;;;;5008042;28;20030;-70
2021/10/31 00:56:59;;;;;;;13.45;9.25;;;12.90;99.90;;;;;;5007228;28;20033;-70
2021/10/31 00:59:25;;;;;;;13.38;9.93;;;12.90;99.90;;;;;;5007470;28;20471;-70
2021/10/31 01:01:52;;;;;;;17.85;9.88;;;12.90;99.90;;;;;;5010082;28;20036;-70
2021/10/31 01:04:23;;;;;;;16.55;9.80;;;12.80;99.90;;;;;;5006793;28;20144;-70
2021/10/31 01:07:10;;;;;;;14.43;10.20;;;12.80;99.90;;;;;;5007606;28;20427;-71
2021/10/31 01:10:01;;;;;;;14.98;9.88;;;12.80;99.90;;;;;;5005251;28;20124;-70
2021/10/31 01:12:27;;;;;;;;;;;12.80;99.90;;;;;;5009139;28;20037;-70
2021/10/31 01:15:22;;;;;;;13.52;9.48;;;12.80;99.90;;;;;;5009489;28;19910;-70
2021/10/31 01:18:15;;;;;;;16.42;10.55;;;12.80;99.90;;;;;;5006562;28;20029;-70
2021/10/31 01:20:49;;;;;;;14.23;10.10;;;12.70;99.90;;;;;;5008023;28;20050;-70
2021/10/31 01:23:41;;;;;;;16.67;10.55;;;12.80;99.90;;;;;;5008162;28;20046;-70
2021/10/31 01:26:38;;;;;;;15.05;10.55;;;12.80;99.90;;;;;;4982547;28;20042;-70
2021/10/31 01:29:19;;;;;;;17.05;10.80;;;12.80;99.90;;;;;;5007935;28;20026;-70
2021/10/31 01:32:08;;;;;;;14.98;10.38;;;12.80;99.90;;;;;;5008611;28;20037;-70
2021/10/31 01:35:02;;;;;;;16.10;10.50;;;12.80;99.90;;;;;;5008609;28;20047;-71
2021/10/31 01:37:54;;;;;;;14.63;10.32;;;12.80;99.90;;;;;;5008320;28;20567;-70
2021/10/31 01:40:28;;;;;;;15.35;10.60;;;12.80;99.90;;;;;;5008094;28;20522;-70
2021/10/31 01:43:24;;;;;;;18.60;11.43;;;12.80;99.90;;;;;;5008394;28;20050;-71
2021/10/31 01:46:11;;;;;;;14.50;10.10;;;12.80;99.90;;;;;;5007033;28;20099;-70
2021/10/31 01:48:49;;;;;;;15.90;10.55;;;12.70;99.90;;;;;;5009130;28;20037;-70
2021/10/31 01:51:26;;;;;;;16.92;10.98;;;12.70;99.90;;;;;;5008232;28;20022;-70
2021/10/31 01:53:57;;;;;;;17.02;11.38;;;12.70;99.90;;;;;;5007960;28;20491;-70
2021/10/31 01:56:24;;;;;;;16.83;10.82;;;12.70;99.90;;;;;;5030568;28;20033;-70
2021/10/31 01:59:13;;;;;;;15.18;10.63;;;12.60;99.90;;;;;;5007811;28;20522;-70
2021/10/31 02:01:43;;;;;;;15.73;10.48;;;12.60;99.90;;;;;;5005739;28;20041;-71
2021/10/31 02:04:12;;;;;;;16.67;10.75;;;12.60;99.90;;;;;;5009543;28;20033;-70
2021/10/31 02:06:44;;;;;;;19.20;11.15;;;12.60;99.90;;;;;;5012130;28;20061;-70
2021/10/31 02:09:13;;;;;;;16.23;11.32;;;12.50;99.90;;;;;;5008855;28;20542;-70
2021/10/31 02:11:41;;;;;;;17.95;12.80;;;12.50;99.90;;;;;;5012327;28;20033;-71
2021/10/31 02:14:17;;;;;;;18.88;12.50;;;12.50;99.90;;;;;;5012136;28;20033;-70
2021/10/31 02:16:45;;;;;;;18.08;10.98;;;12.50;99.90;;;;;;5010191;28;20108;-70
2021/10/31 02:19:22;;;;;;;15.23;10.25;;;12.50;99.90;;;;;;5007825;28;20042;-70
2021/10/31 02:21:55;;;;;;;16.42;11.90;;;12.50;99.90;;;;;;5011903;28;20022;-70
2021/10/31 02:24:21;;;;;;;15.57;11.15;;;12.50;99.90;;;;;;5011371;28;20395;-70
2021/10/31 02:26:50;;;;;;;16.80;11.23;;;12.50;99.90;;;;;;5009859;28;20026;-71
2021/10/31 02:29:17;;;;;;;14.50;10.77;;;12.50;99.90;;;;;;5011262;28;20053;-70
2021/10/31 02:31:42;;;;;;;19.70;11.75;;;12.50;99.90;;;;;;5010757;28;20042;-70
2021/10/31 02:34:08;;;;;;;17.40;11.00;;;12.50;99.90;;;;;;5010050;28;20029;-70
2021/10/31 02:36:35;;;;;;;16.42;11.77;;;12.50;99.90;;;;;;5011517;28;20034;-70
2021/10/31 02:39:03;;;;;;;19.85;13.38;;;12.50;99.90;;;;;;5011549;28;20036;-70
2021/10/31 02:41:30;;;;;;;16.08;12.50;;;12.50;99.90;;;;;;5011871;28;20392;-70
2021/10/31 02:43:56;;;;;;;16.63;12.23;;;12.50;99.90;;;;;;5011900;28;20030;-70
2021/10/31 02:46:23;;;;;;;20.30;13.93;;;12.50;99.90;;;;;;5011520;28;20030;-70
2021/10/31 02:48:49;;;;;;;18.80;12.43;;;12.50;99.90;;;;;;5010266;28;20030;-70
2021/10/31 02:51:37;;;;;;;18.60;13.93;;;12.50;99.90;;;;;;5010422;28;20052;-70
2021/10/31 02:54:33;;;;;;;18.88;13.43;;;12.50;99.90;;;;;;5010526;28;20053;-71
2021/10/31 02:57:07;;;;;;;17.55;12.95;;;12.50;99.90;;;;;;5002633;28;20500;-70
2021/10/31 02:59:47;;;;;;;17.80;13.38;;;12.50;99.90;;;;;;5008937;28;20549;-70
2021/10/31 03:02:14;;;;;;;18.17;13.23;;;12.50;99.90;;;;;;5034446;28;20030;-70
2021/10/31 03:04:40;;;;;;;17.90;12.23;;;12.50;99.90;;;;;;5009731;28;20072;-70
2021/10/31 03:07:06;;;;;;;21.60;14.85;;;12.50;99.90;;;;;;5010442;28;20023;-70
2021/10/31 03:09:32;;;;;;;16.90;12.88;;;12.50;99.90;;;;;;5007412;28;20030;-70
2021/10/31 03:12:07;;;;;;;18.27;13.45;;;12.50;99.90;;;;;;5011033;28;20463;-70
2021/10/31 03:14:34;;;;;;;21.17;13.25;;;12.60;99.90;;;;;;5009980;28;20029;-70
2021/10/31 03:16:59;;;;;;;18.73;13.85;;;12.60;99.90;;;;;;5009564;28;20026;-71
2021/10/31 03:19:25;;;;;;;17.67;13.48;;;12.50;99.90;;;;;;5008697;28;20036;-70
2021/10/31 03:21:51;;;;;;;20.23;12.90;;;12.50;99.90;;;;;;5011014;28;20033;-70
2021/10/31 03:24:16;;;;;;;17.75;13.38;;;12.50;99.90;;;;;;5009814;28;20041;-71
2021/10/31 03:26:42;;;;;;;17.67;12.55;;;12.50;99.90;;;;;;5009890;28;20037;-70
2021/10/31 03:29:08;;;;;;;21.13;14.50;;;12.50;99.90;;;;;;5010727;28;20063;-70
2021/10/31 03:31:35;;;;;;;20.30;14.88;;;12.50;99.90;;;;;;5009181;28;20025;-70
2021/10/31 03:34:00;;;;;;;20.25;14.75;;;12.50;99.90;;;;;;5010685;28;20088;-70
2021/10/31 03:36:26;;;;;;;19.02;13.45;;;12.60;99.90;;;;;;5010343;28;20034;-70
2021/10/31 03:38:52;;;;;;;18.38;13.43;;;12.60;99.90;;;;;;5010510;28;20022;-71
2021/10/31 03:41:17;;;;;;;20.80;14.52;;;12.60;99.90;;;;;;5008379;28;20029;-70
2021/10/31 03:43:43;;;;;;;21.48;15.43;;;12.60;99.90;;;;;;5010217;28;20108;-70
2021/10/31 03:46:09;;;;;;;24.15;15.00;;;12.60;99.90;;;;;;5010464;28;20033;-70
2021/10/31 03:48:34;;;;;;;22.13;14.52;;;12.60;99.90;;;;;;5010891;28;20498;-70
2021/10/31 03:51:00;;;;;;;22.23;15.57;;;12.60;99.90;;;;;;5010249;28;20032;-71
2021/10/31 03:53:25;;;;;;;25.33;16.27;;;12.60;99.90;;;;;;5009772;28;20124;-71
2021/10/31 03:55:51;;;;;;;22.20;15.60;;;12.70;99.90;;;;;;5009090;28;20065;-70
2021/10/31 03:58:17;;;;;;;22.63;15.77;;;12.70;99.90;;;;;;5009558;28;20034;-70
2021/10/31 04:00:43;;;;;;;22.05;15.70;;;12.70;99.90;;;;;;5008228;28;20475;-70
2021/10/31 04:03:10;;;;;;;30.15;17.80;;;12.70;99.90;;;;;;5009939;28;20033;-70
2021/10/31 04:05:36;;;;;;;22.38;17.30;;;12.70;99.90;;;;;;5008520;28;20026;-70
2021/10/31 04:08:02;;;;;;;26.73;18.10;;;12.70;99.90;;;;;;5009697;28;20462;-70
2021/10/31 04:10:29;;;;;;;28.23;18.27;;;12.70;99.90;;;;;;5008773;28;20121;-71
2021/10/31 04:12:55;;;;;;;23.33;17.20;;;12.70;99.90;;;;;;5010013;28;20030;-71
2021/10/31 04:15:21;;;;;;;24.38;17.50;;;12.60;99.90;;;;;;5007471;28;20069;-71
2021/10/31 04:17:47;;;;;;;26.77;18.92;;;12.60;99.90;;;;;;5007545;28;20045;-70
2021/10/31 04:20:13;;;;;;;24.02;17.58;;;12.60;99.90;;;;;;5008877;28;20033;-70
2021/10/31 04:22:39;;;;;;;23.55;17.48;;;12.60;99.90;;;;;;5009682;28;20026;-70
2021/10/31 04:25:06;;;;;;;25.10;17.33;;;12.60;99.90;;;;;;5010479;28;20105;-71
2021/10/31 04:27:32;;;;;;;22.88;16.25;;;12.60;99.90;;;;;;5009526;28;20033;-70
2021/10/31 04:29:58;;;;;;;24.75;17.65;;;12.60;99.90;;;;;;5009029;28;20060;-70
2021/10/31 04:32:24;;;;;;;26.08;17.10;;;12.60;99.90;;;;;;5008673;28;20054;-71
2021/10/31 04:34:50;;;;;;;27.20;19.10;;;12.60;99.90;;;;;;5009450;28;20069;-70
2021/10/31 04:37:16;;;;;;;25.20;18.77;;;12.60;99.90;;;;;;5008159;28;20065;-71
2021/10/31 04:39:43;;;;;;;25.65;18.33;;;12.60;99.90;;;;;;5008467;28;20492;-70
2021/10/31 04:42:10;;;;;;;23.08;17.13;;;12.60;99.90;;;;;;5009951;28;20038;-70
2021/10/31 04:44:37;;;;;;;26.20;18.38;;;12.70;99.90;;;;;;5010094;28;20088;-71
2021/10/31 04:47:04;;;;;;;22.58;17.13;;;12.70;99.90;;;;;;5008136;28;20419;-70
2021/10/31 04:49:30;;;;;;;23.80;17.40;;;12.70;99.90;;;;;;5008973;28;20084;-70
2021/10/31 04:51:57;;;;;;;23.40;17.15;;;12.60;99.90;;;;;;5008741;28;20034;-70
2021/10/31 04:54:23;;;;;;;26.85;19.42;;;12.60;99.90;;;;;;5021655;28;20120;-70
2021/10/31 04:56:49;;;;;;;24.83;17.95;;;12.60;99.90;;;;;;5008514;28;20030;-71
2021/10/31 04:59:15;;;;;;;26.02;19.88;;;12.60;99.90;;;;;;5008970;28;20318;-70
2021/10/31 05:01:41;;;;;;;26.48;19.20;;;12.60;99.90;;;;;;5006321;28;20037;-70
2021/10/31 05:04:06;;;;;;;25.60;18.35;;;12.50;99.90;;;;;;5008203;28;20026;-71
2021/10/31 05:06:33;;;;;;;25.40;18.02;;;12.60;99.90;;;;;;5015062;28;20530;-69
2021/10/31 05:08:59;;;;;;;26.00;18.15;;;12.60;99.90;;;;;;5008999;28;20034;-69
2021/10/31 05:11:25;;;;;;;22.13;15.95;;;12.60;99.90;;;;;;5024075;28;20391;-69
2021/10/31 05:13:51;;;;;;;22.48;16.00;;;12.60;99.90;;;;;;5008813;28;20322;-71
2021/10/31 05:16:16;;;;;;;22.38;15.55;;;12.60;99.90;;;;;;5009441;28;20384;-70
2021/10/31 05:18:42;;;;;;;22.95;16.83;;;12.60;99.90;;;;;;5006535;28;20033;-70
2021/10/31 05:21:08;;;;;;;24.42;15.95;;;12.60;99.90;;;;;;5008203;28;20081;-70
2021/10/31 05:23:34;;;;;;;24.63;17.23;;;12.60;99.90;;;;;;5008766;28;20089;-70
2021/10/31 05:25:59;;;;;;;24.83;17.10;;;12.60;99.90;;;;;;5008067;28;20113;-70
2021/10/31 05:28:26;;;;;;;22.95;15.88;;;12.50;99.90;;;;;;5008228;28;20036;-71
2021/10/31 05:30:55;;;;;;;22.80;16.75;;;12.50;99.90;;;;;;5007923;28;20045;-70
2021/10/31 05:33:22;;;;;;;23.52;16.50;;;12.50;99.90;;;;;;5009248;28;20030;-71
2021/10/31 05:35:51;;;;;;;23.08;16.55;;;12.50;99.90;;;;;;5008132;28;20411;-70
2021/10/31 05:38:18;;;;;;;22.50;15.90;;;12.40;99.90;;;;;;5007820;28;20543;-70
2021/10/31 05:40:45;;;;;;;20.48;14.88;;;12.40;99.90;;;;;;5007528;28;20060;-70
2021/10/31 05:43:11;;;;;;;23.45;15.30;;;12.40;99.90;;;;;;5006962;28;20408;-70
2021/10/31 05:45:37;;;;;;;23.42;15.98;;;12.30;99.90;;;;;;5023553;28;20022;-70
2021/10/31 05:48:02;;;;;;;22.35;16.27;;;12.30;99.90;;;;;;5008251;28;20087;-70
2021/10/31 05:50:28;;;;;;;25.10;16.77;;;12.30;99.90;;;;;;5006507;28;20439;-70
2021/10/31 05:52:54;;;;;;;22.27;16.70;;;12.20;99.90;;;;;;5008804;28;20069;-70
2021/10/31 05:55:20;;;;;;;22.73;16.10;;;12.20;99.90;;;;;;5008741;28;20061;-70
2021/10/31 05:57:46;;;;;;;24.27;15.90;;;12.10;99.90;;;;;;5006687;28;20037;-70
2021/10/31 06:00:14;;;;;;;22.30;16.02;;;12.10;99.90;;;;;;5005287;28;20030;-70
2021/10/31 06:02:39;;;;;;;20.65;14.68;;;12.10;99.90;;;;;;5007391;28;20036;-70
2021/10/31 06:05:06;;;;;;;26.88;16.63;;;12.10;99.90;;;;;;5008021;28;20383;-70
2021/10/31 06:07:32;;;;;;;23.55;16.95;;;12.10;99.90;;;;;;5008078;28;20104;-70
2021/10/31 06:09:58;;;;;;;21.63;15.07;;;12.20;99.90;;;;;;5006990;28;20113;-70
2021/10/31 06:12:24;;;;;;;22.10;15.48;;;12.20;99.90;;;;;;5008329;28;20076;-70
2021/10/31 06:14:50;;;;;;;23.83;17.75;;;12.20;99.90;;;;;;5009598;28;20022;-70
2021/10/31 06:17:16;;;;;;;25.90;16.55;;;12.20;99.90;;;;;;5007512;28;20038;-70
2021/10/31 06:19:42;;;;;;;20.85;15.75;;;12.20;99.90;;;;;;5008790;28;20042;-70
2021/10/31 06:22:08;;;;;;;26.08;17.40;;;12.20;99.90;;;;;;5008485;28;20034;-70
2021/10/31 06:24:34;;;;;;;20.85;15.38;;;12.20;99.90;;;;;;5009163;28;20026;-70
2021/10/31 06:27:00;;;;;;;24.77;15.88;;;12.20;99.90;;;;;;5009534;28;20403;-70
2021/10/31 06:29:32;;;;;;;24.20;15.73;;;12.20;99.90;;;;;;4989241;28;20433;-69
2021/10/31 06:32:04;;;;;;;19.83;14.63;;;12.30;99.90;;;;;;5006207;28;20034;-70
2021/10/31 06:34:30;;;;;;;21.13;14.57;;;12.30;99.90;;;;;;5005254;28;20025;-70
2021/10/31 06:36:55;;;;;;;23.80;15.52;;;12.30;99.90;;;;;;5008163;28;20057;-70
2021/10/31 06:39:21;;;;;;;21.90;14.65;;;12.30;99.90;;;;;;5009032;28;20030;-70
2021/10/31 06:41:47;;;;;;;23.05;15.18;;;12.30;99.90;;;;;;5005538;28;20452;-70
2021/10/31 06:44:12;;;;;;;21.95;14.50;;;12.30;99.90;;;;;;5007711;28;20997;-70
2021/10/31 06:46:38;;;;;;;19.90;14.32;;;12.30;99.90;;;;;;5007699;28;20534;-70
2021/10/31 06:49:05;;;;;;;18.95;14.35;;;12.30;99.90;;;;;;5007611;28;20542;-70
2021/10/31 06:51:30;;;;;;;20.42;14.15;;;12.30;99.90;;;;;;5010595;28;20544;-70
2021/10/31 06:53:56;;;;;;;18.92;14.20;;;12.30;99.90;;;;;;5011720;28;20105;-70
2021/10/31 06:56:25;;;;;;;22.35;14.05;;;12.30;99.90;;;;;;5011997;28;20117;-71
2021/10/31 06:58:50;;;;;;;21.45;14.75;;;12.30;99.90;;;;;;5011523;28;20164;-70
2021/10/31 07:01:20;;;;;;;22.98;14.57;;;12.30;99.90;;;;;;5008361;28;20112;-70
2021/10/31 07:03:48;;;;;;;20.00;14.05;;;12.30;99.90;;;;;;5010624;28;20022;-70
2021/10/31 07:06:15;;;;;;;18.70;14.18;;;12.30;99.90;;;;;;5009754;28;20030;-70
2021/10/31 07:08:42;;;;;;;19.80;14.30;;;12.30;99.90;;;;;;5012671;28;20034;-70
2021/10/31 07:11:09;;;;;;;18.70;14.65;;;12.30;99.90;;;;;;5012469;28;20032;-70
2021/10/31 07:13:34;;;;;;;21.52;14.82;;;12.30;99.90;;;;;;5012851;28;20105;-71
2021/10/31 07:16:00;;;;;;;21.17;14.95;;;12.30;99.90;;;;;;5013275;28;20113;-73
2021/10/31 07:18:26;;;;;;;23.77;14.80;;;12.30;99.90;;;;;;5011310;28;20060;-70
2021/10/31 07:20:52;;;;;;;19.52;14.25;;;12.30;99.90;;;;;;5012180;28;20033;-70
2021/10/31 07:23:21;;;;;;;21.73;15.27;;;12.30;99.90;;;;;;5012633;28;20033;-71
2021/10/31 07:25:47;;;;;;;21.10;15.07;;;12.30;99.90;;;;;;5012750;28;20535;-72
2021/10/31 07:28:13;;;;;;;21.98;15.07;;;12.30;99.90;;;;;;5011935;28;20033;-71
2021/10/31 07:30:38;;;;;;;25.20;16.38;;;12.30;99.90;;;;;;5013726;28;20542;-71
2021/10/31 07:33:04;;;;;;;24.50;16.35;;;12.30;99.90;;;;;;5009858;28;20049;-71
2021/10/31 07:35:31;;;;;;;22.08;14.95;;;12.20;99.90;;;;;;5010903;28;20030;-72
2021/10/31 07:37:57;;;;;;;25.23;16.33;;;12.20;99.90;;;;;;5012928;28;20030;-71
2021/10/31 07:40:23;;;;;;;22.75;14.45;;;12.20;99.90;;;;;;5012102;28;20117;-72
2021/10/31 07:42:50;;;;;;;23.50;15.50;;;12.30;99.90;;;;;;5009665;28;20491;-71
2021/10/31 07:45:16;;;;;;;21.35;15.65;;;12.30;99.90;;;;;;5013193;28;20026;-71
2021/10/31 07:47:42;;;;;;;24.70;16.33;;;12.30;99.90;;;;;;5013070;28;20083;-71
2021/10/31 07:50:09;;;;;;;23.42;16.10;;;12.30;99.90;;;;;;5008299;28;20030;-71
2021/10/31 07:52:41;;;;;;;22.02;15.07;;;12.30;99.90;;;;;;5011450;28;20022;-71
2021/10/31 07:55:08;;;;;;;21.65;14.65;;;12.30;99.90;;;;;;5008351;28;20065;-71
2021/10/31 07:57:34;;;;;;;22.30;14.00;;;12.30;99.90;;;;;;5012357;28;20076;-71
2021/10/31 08:00:00;;;;;;;23.77;14.60;;;12.30;99.90;;;;;;5012440;28;20050;-71
2021/10/31 08:02:25;;;;;;;25.85;16.08;;;12.30;99.90;;;;;;5011055;28;20060;-71
2021/10/31 08:04:51;;;;;;;24.83;15.10;;;12.20;99.90;;;;;;5012080;28;20045;-71
2021/10/31 08:07:17;;;;;;;22.95;14.52;;;12.20;99.90;;;;;;5010792;28;20025;-71
2021/10/31 08:09:43;;;;;;;24.58;14.85;;;12.20;99.90;;;;;;5010103;28;20033;-71
2021/10/31 08:12:09;;;;;;;20.15;14.70;;;12.20;99.90;;;;;;5010586;28;20030;-71
2021/10/31 08:14:35;;;;;;;21.85;14.50;;;12.30;99.90;;;;;;5010956;28;20387;-71
2021/10/31 08:17:01;;;;;;;23.75;15.10;;;12.30;99.90;;;;;;5012324;28;20030;-72
2021/10/31 08:19:26;;;;;;;18.08;13.75;;;12.30;99.90;;;;;;5010654;28;20034;-72
2021/10/31 08:21:53;;;;;;;19.77;13.52;;;12.30;99.90;;;;;;5012391;28;20639;-71
2021/10/31 08:24:20;;;;;;;21.70;16.02;;;12.40;99.90;;;;;;5012013;28;20095;-71
2021/10/31 08:26:46;;;;;;;20.90;14.82;;;12.40;99.90;;;;;;5010534;28;20026;-73
2021/10/31 08:29:13;;;;;;;20.48;14.25;;;12.40;99.90;;;;;;5010659;28;20033;-73
2021/10/31 08:31:41;;;;;;;23.05;14.80;;;12.40;99.90;;;;;;5012545;28;20428;-73
2021/10/31 08:34:07;;;;;;;22.65;15.40;;;12.30;99.90;;;;;;5012813;28;20025;-73
2021/10/31 08:36:33;;;;;;;23.92;15.32;;;12.30;99.90;;;;;;5010973;28;20399;-72
2021/10/31 08:39:00;;;;;;;22.48;16.55;;;12.30;99.90;;;;;;5012713;28;20022;-72
2021/10/31 08:41:27;;;;;;;21.05;15.63;;;12.30;99.90;;;;;;5012584;28;20029;-72
2021/10/31 08:43:55;;;;;;;23.83;15.80;;;12.30;99.90;;;;;;5012206;28;20022;-72
2021/10/31 08:46:21;;;;;;;22.85;15.65;;;12.30;99.90;;;;;;5011988;28;20495;-72
2021/10/31 08:48:47;;;;;;;24.25;14.35;;;12.30;99.90;;;;;;5010806;28;20036;-72
2021/10/31 08:51:14;;;;;;;20.85;14.40;;;12.30;99.90;;;;;;5012061;28;20519;-72
2021/10/31 08:53:40;;;;;;;22.45;15.52;;;12.40;99.90;;;;;;5011537;28;20033;-72
2021/10/31 08:56:10;;;;;;;20.85;14.52;;;12.40;99.90;;;;;;5009575;28;20026;-72
2021/10/31 08:58:38;;;;;;;21.87;14.40;;;12.50;99.90;;;;;;5010117;28;20018;-72
2021/10/31 09:01:03;;;;;;;21.25;15.05;;;12.50;99.90;;;;;;5011052;28;20034;-72
2021/10/31 09:03:29;;;;;;;20.50;14.48;;;12.50;99.90;;;;;;5010626;28;20503;-72
2021/10/31 09:05:55;;;;;;;19.48;13.82;;;12.60;99.90;;;;;;5020082;28;20137;-72
2021/10/31 09:08:21;;;;;;;20.10;14.07;;;12.70;99.90;;;;;;5011760;28;20414;-71
2021/10/31 09:10:47;;;;;;;23.35;14.00;;;12.80;99.90;;;;;;5009376;28;20026;-72
2021/10/31 09:13:13;;;;;;;19.10;13.32;;;12.90;99.90;;;;;;5010638;28;20026;-73
2021/10/31 09:15:39;;;;;;;19.90;13.95;;;12.90;99.90;;;;;;5010514;28;20058;-72
2021/10/31 09:18:06;;;;;;;20.50;13.98;;;13.00;99.90;;;;;;5009775;28;20041;-73
2021/10/31 09:20:33;;;;;;;21.98;13.73;;;12.90;99.90;;;;;;5011609;28;20506;-76
2021/10/31 09:23:01;;;;;;;22.92;14.43;;;13.00;99.90;;;;;;5011612;28;20073;-74
2021/10/31 09:25:27;;;;;;;18.67;13.95;;;13.00;99.90;;;;;;5011553;28;20036;-73
2021/10/31 09:27:54;;;;;;;19.77;13.55;;;13.00;99.90;;;;;;5012587;28;20022;-73
2021/10/31 09:30:22;;;;;;;17.75;12.93;;;13.10;99.90;;;;;;5009673;28;20117;-73
2021/10/31 09:32:49;;;;;;;20.40;13.57;;;13.20;99.90;;;;;;5010827;28;20079;-73
2021/10/31 09:35:21;;;;;;;17.45;12.10;;;13.10;99.90;;;;;;5010254;28;20033;-73
2021/10/31 09:37:56;;;;;;;20.00;13.07;;;13.20;99.90;;;;;;5009413;28;20049;-73
2021/10/31 09:40:33;;;;;;;19.08;12.65;;;13.20;99.90;;;;;;5012686;28;20112;-72
2021/10/31 09:43:05;;;;;;;19.65;12.38;;;13.20;99.90;;;;;;5024230;28;20487;-72
2021/10/31 09:45:33;;;;;;;17.85;12.55;;;13.30;99.90;;;;;;5008028;28;20112;-72
2021/10/31 09:48:31;;;;;;;22.20;14.50;;;13.30;99.90;;;;;;5011362;28;20036;-72
2021/10/31 09:50:58;;;;;;;23.48;13.75;;;13.20;99.90;;;;;;4981262;28;20030;-73
2021/10/31 09:53:25;;;;;;;18.25;12.60;;;13.20;99.90;;;;;;5008841;28;20033;-71
2021/10/31 09:55:53;;;;;;;14.60;10.65;;;13.20;99.90;;;;;;5006263;28;20034;-72
2021/10/31 09:58:40;;;;;;;17.50;12.60;;;13.30;99.90;;;;;;5007734;28;20468;-72
2021/10/31 10:01:29;;;;;;;17.98;12.05;;;13.40;99.90;;;;;;5008397;28;20030;-72
2021/10/31 10:03:56;;;;;;;20.67;12.05;;;13.50;99.90;;;;;;5005698;28;20037;-72
2021/10/31 10:06:28;;;;;;;21.45;13.40;;;13.60;99.90;;;;;;5008273;28;20026;-73
2021/10/31 10:09:09;;;;;;;16.52;11.73;;;13.60;99.90;;;;;;5007567;28;20037;-73
2021/10/31 10:11:40;;;;;;;18.63;12.40;;;13.70;99.90;;;;;;5009219;28;20040;-73
2021/10/31 10:14:13;;;;;;;19.08;12.13;;;13.70;99.90;;;;;;5013768;28;20030;-73
2021/10/31 10:16:42;;;;;;;18.63;11.90;;;13.60;99.90;;;;;;5006764;28;20068;-73
2021/10/31 10:19:55;;;;;;;19.20;12.95;;;13.70;99.90;;;;;;5007545;28;20037;-73
2021/10/31 10:22:24;;;;;;;19.20;12.57;;;13.70;99.90;;;;;;5006899;28;20514;-73
2021/10/31 10:25:00;;;;;;;14.75;11.05;;;13.80;99.90;;;;;;5031597;28;20499;-73
2021/10/31 10:27:35;;;;;;;15.30;10.65;;;13.90;99.90;;;;;;5009959;28;20530;-73
2021/10/31 10:30:14;;;;;;;16.63;10.23;;;14.10;99.90;;;;;;5011972;28;20116;-72
2021/10/31 10:32:52;;;;;;;15.65;10.05;;;14.20;99.90;;;;;;5011933;28;20029;-73
2021/10/31 10:35:20;;;;;;;16.60;9.65;;;14.30;99.90;;;;;;5010669;28;20034;-73
2021/10/31 10:37:46;;;;;;;13.40;9.55;;;14.40;99.90;;;;;;5012467;28;20093;-72
2021/10/31 10:40:32;;;;;;;14.10;9.80;;;14.50;99.90;;;;;;5012079;28;20168;-73
2021/10/31 10:42:59;;;;;;;13.30;9.15;;;14.70;99.90;;;;;;5003288;28;20046;-73
2021/10/31 10:45:28;;;;;;;12.75;8.90;;;14.80;99.90;;;;;;5011828;28;20109;-71
2021/10/31 10:48:03;;;;;;;13.07;9.05;;;14.80;99.90;;;;;;5008990;28;20032;-71
2021/10/31 10:50:40;;;;;;;10.68;8.23;;;14.90;99.90;;;;;;5011180;28;20053;-71
2021/10/31 10:53:26;;;;;;;9.50;6.93;;;15.30;99.90;;;;;;5008048;28;20091;-71
2021/10/31 10:55:52;;;;;;;10.63;7.45;;;15.80;99.90;;;;;;5009082;28;20053;-72
2021/10/31 10:58:19;;;;;;;11.60;7.03;;;16.40;99.00;;;;;;5009011;28;20032;-71
2021/10/31 11:00:47;;;;;;;13.45;7.10;;;17.10;97.50;;;;;;5009744;28;20026;-71
2021/10/31 11:03:18;;;;;;;8.35;5.75;;;17.60;95.10;;;;;;5007815;28;20076;-71
2021/10/31 11:05:58;;;;;;;9.75;6.65;;;17.70;94.60;;;;;;5007419;28;20057;-71
2021/10/31 11:08:24;;;;;;;8.63;6.10;;;17.50;94.40;;;;;;5005067;28;20030;-72
2021/10/31 11:10:54;;;;;;;10.15;5.80;;;17.10;94.70;;;;;;5009172;28;20048;-71
2021/10/31 11:13:21;;;;;;;8.75;5.05;;;16.60;95.50;;;;;;5007814;28;20444;-71
2021/10/31 11:15:46;;;;;;;11.77;6.65;;;16.50;96.50;;;;;;5010944;28;20348;-71
2021/10/31 11:18:12;;;;;;;10.50;6.68;;;16.30;96.90;;;;;;5011353;28;20033;-71
2021/10/31 11:20:42;;;;;;;13.88;8.32;;;16.10;97.60;;;;;;5012898;28;20033;-72
2021/10/31 11:23:12;;;;;;;11.85;7.43;;;15.80;97.90;;;;;;5008348;28;20244;-71
2021/10/31 11:25:41;;;;;;;9.57;7.28;;;15.70;98.40;;;;;;5009865;28;20100;-71
2021/10/31 11:28:09;;;;;;;15.40;7.68;;;15.70;98.30;;;;;;5011015;28;20052;-72
2021/10/31 11:30:36;;;;;;;12.60;7.53;;;15.60;98.60;;;;;;5009723;28;20026;-71
2021/10/31 11:33:04;;;;;;;11.73;6.97;;;15.60;98.60;;;;;;5009393;28;20041;-71
2021/10/31 11:35:29;;;;;;;17.55;7.93;;;15.50;99.10;;;;;;5023013;28;20658;-72
2021/10/31 11:38:22;;;;;;;10.52;8.18;;;15.40;99.20;;;;;;5011327;28;20113;-71
2021/10/31 11:40:59;;;;;;;11.18;7.15;;;15.40;99.40;;;;;;5010488;28;20034;-70
2021/10/31 11:43:27;;;;;;;12.38;8.27;;;15.30;99.60;;;;;;5010419;28;20559;-71
2021/10/31 11:45:54;;;;;;;11.73;7.95;;;15.20;99.70;;;;;;5007226;28;20499;-71
2021/10/31 11:48:28;;;;;;;12.68;8.25;;;15.20;99.90;;;;;;5012595;28;20038;-71
2021/10/31 11:50:59;;;;;;;13.68;7.35;;;15.00;99.90;;;;;;5012415;28;20033;-71
2021/10/31 11:53:27;;;;;;;13.52;7.65;;;15.00;99.90;;;;;;5006472;28;20040;-71
2021/10/31 11:55:55;;;;;;;10.45;6.88;;;14.90;99.90;;;;;;5012103;28;20112;-71
2021/10/31 11:58:35;;;;;;;12.18;6.95;;;15.00;99.90;;;;;;5010530;28;20026;-71
2021/10/31 12:01:12;;;;;;;11.35;7.95;;;15.00;99.90;;;;;;5011689;28;20029;-71
2021/10/31 12:03:48;;;;;;;11.95;7.90;;;15.00;99.90;;;;;;5009943;28;20033;-70
2021/10/31 12:06:16;;;;;;;9.48;6.78;;;15.00;99.90;;;;;;5011466;28;20026;-71
2021/10/31 12:08:54;;;;;;;11.30;6.78;;;15.00;99.90;;;;;;5010365;28;20618;-71
2021/10/31 12:11:29;;;;;;;11.52;7.60;;;15.00;99.90;;;;;;5005708;28;20156;-71
2021/10/31 12:13:55;;;;;;;12.35;6.78;;;15.00;99.90;;;;;;5008455;28;20033;-71
2021/10/31 12:16:21;;;;;;;8.93;6.85;;;15.00;99.90;;;;;;5009893;28;20570;-72
2021/10/31 12:19:07;;;;;;;10.27;7.63;;;14.90;99.90;;;;;;5007217;28;20030;-71
2021/10/31 12:21:40;;;;;;;16.83;8.07;;;14.90;99.90;;;;;;5007853;28;21848;-70
2021/10/31 12:24:18;;;;;;;13.05;7.68;;;14.80;99.90;;;;;;5007569;28;20033;-73
2021/10/31 12:26:52;;;;;;;10.65;6.95;;;14.80;99.90;;;;;;5008676;28;20105;-71
2021/10/31 12:29:20;;;;;;;9.60;6.85;;;14.80;99.90;;;;;;5028430;28;20430;-71
2021/10/31 12:31:56;;;;;;;11.02;7.38;;;14.80;99.90;;;;;;5007061;28;20101;-71
2021/10/31 12:34:25;;;;;;;9.60;7.00;;;14.80;99.90;;;;;;5009164;28;20045;-72
2021/10/31 12:36:56;;;;;;;10.10;7.53;;;14.80;99.90;;;;;;5007053;28;20553;-71
2021/10/31 12:39:24;;;;;;;11.83;7.20;;;14.80;99.90;;;;;;5008862;28;20052;-71
2021/10/31 12:42:12;;;;;;;10.43;6.72;;;14.80;99.90;;;;;;5009999;28;20033;-71